KPZQ

Presque Isle County Airport

Rogers City, Michigan, USA
METAR KPZQ 151856Z AUTO 28015G26KT 2SM -SN OVC020 M03/M05 A2950 RMK AO2 T10271055
Observed Flight Rules
Feb-15 @ 18:56 UTC (13 minutes ago) Instrument Flight Rules
Wind Visibility Clouds Conditions
280° at 15 knots
 Gusting to 26 knots
2 miles
  • Overcast at 2,000' AGL
  • Light Snow
Temperatures Readings
Current -3°C / 27°F
Dewpoint -6°C / 21°F
Humidity 80%
Altimeter 29.5" Hg
Pressure 999.02 hPa
Elevation 204
METAR KPZQ 151856Z AUTO 28015G26KT 2SM -SN OVC020 M03/M05 A2950 RMK AO2 T10271055
Observed Flight Rules
Feb-15 @ 18:56 UTC
(13 minutes ago)
IFR
Wind Visibility
280° at 15 knots
 Gusting to 26 knots
2 miles
Clouds
  • Overcast at 2,000' AGL
Conditions
  • Light Snow
Temperature Dewpoint
-3°C / 27°F -6°C / 21°F
Humidity Altimeter Pressure
80% 29.5" Hg 999.02 hPa